Time;durP1;ratioP1;P1;durP2;ratioP2;P2;SDS_P1;SDS_P2;PMS_P1;PMS_P2;Temp;Humidity;BMP_temperature;BMP_pressure;BME280_temperature;BME280_humidity;BME280_pressure;Samples;Min_cycle;Max_cycle;Signal;HPM_P1;HPM_P2
2022/01/02 00:01:49;;;;;;;4.03;2.23;;;;;;;;;;5057085;28;20298;-64
2022/01/02 00:04:21;;;;;;;3.37;2.60;;;;;;;;;;5039246;28;20719;-65
2022/01/02 00:06:51;;;;;;;1.73;1.33;;;;;;;;;;5057000;28;20204;-64
2022/01/02 00:09:33;;;;;;;2.50;1.80;;;;;;;;;;5056700;28;20212;-65
2022/01/02 00:12:22;;;;;;;1.60;1.30;;;;;;;;;;5056953;28;20200;-65
2022/01/02 00:14:54;;;;;;;2.03;1.40;;;;;;;;;;5056554;28;20699;-64
2022/01/02 00:17:23;;;;;;;3.97;2.60;;;;;;;;;;5056603;28;20196;-64
2022/01/02 00:19:54;;;;;;;4.70;1.93;;;;;;;;;;5056320;28;20319;-63
2022/01/02 00:22:33;;;;;;;2.73;2.10;;;;;;;;;;5053913;28;20753;-63
2022/01/02 00:25:06;;;;;;;2.63;1.40;;;;;;;;;;5055717;28;20286;-64
2022/01/02 00:27:35;;;;;;;1.70;1.40;;;;;;;;;;5056406;28;20203;-65
2022/01/02 00:30:04;;;;;;;1.43;1.30;;;;;;;;;;5038693;28;20212;-64
2022/01/02 00:32:36;;;;;;;2.10;1.63;;;;;;;;;;5056486;28;20308;-64
2022/01/02 00:35:04;;;;;;;3.27;2.10;;;;;;;;;;5056510;28;20204;-64
2022/01/02 00:37:31;;;;;;;5.47;2.90;;;;;;;;;;5056471;28;20594;-64
2022/01/02 00:39:58;;;;;;;1.57;1.30;;;;;;;;;;5056078;28;20232;-64
2022/01/02 00:42:36;;;;;;;2.43;1.80;;;;;;;;;;5038576;28;20208;-65
2022/01/02 00:45:05;;;;;;;3.37;1.70;;;;;;;;;;5056400;28;20199;-64
2022/01/02 00:47:35;;;;;;;1.90;1.40;;;;;;;;;;5056215;28;20208;-64
2022/01/02 00:50:11;;;;;;;3.17;1.73;;;;;;;;;;5038199;28;20908;-64
2022/01/02 00:52:43;;;;;;;3.57;1.70;;;;;;;;;;5056124;28;20196;-64
2022/01/02 00:55:13;;;;;;;3.63;1.80;;;;;;;;;;5055954;28;20292;-64
2022/01/02 00:57:42;;;;;;;2.10;1.83;;;;;;;;;;5038457;28;20200;-64
2022/01/02 01:00:17;;;;;;;2.90;1.97;;;;;;;;;;5055876;28;20239;-64
2022/01/02 01:02:49;;;;;;;3.37;2.57;;;;;;;;;;5055651;28;20655;-64
2022/01/02 01:05:26;;;;;;;3.63;1.80;;;;;;;;;;5055551;28;20207;-64
2022/01/02 01:07:59;;;;;;;2.47;2.10;;;;;;;;;;5055752;28;20202;-64
2022/01/02 01:10:29;;;;;;;11.60;6.40;;;;;;;;;;5055853;28;20278;-64
2022/01/02 01:12:59;;;;;;;6.83;4.10;;;;;;;;;;5055456;28;20219;-65
2022/01/02 01:15:29;;;;;;;6.53;3.87;;;;;;;;;;5037705;28;20258;-64
2022/01/02 01:17:59;;;;;;;3.53;2.77;;;;;;;;;;5037797;28;20294;-64
2022/01/02 01:20:30;;;;;;;14.47;5.47;;;;;;;;;;5037548;28;20780;-65
2022/01/02 01:22:57;;;;;;;34.40;11.83;;;;;;;;;;5037591;28;20274;-65
2022/01/02 01:25:25;;;;;;;42.27;12.13;;;;;;;;;;5037651;28;20216;-65
2022/01/02 01:27:53;;;;;;;252.83;66.13;;;;;;;;;;5055402;28;20236;-64
2022/01/02 01:30:24;;;;;;;351.40;91.73;;;;;;;;;;5055133;28;20625;-65
2022/01/02 01:32:53;;;;;;;37.70;11.37;;;;;;;;;;5055341;28;20200;-64
2022/01/02 01:35:22;;;;;;;21.77;7.50;;;;;;;;;;5037468;28;20240;-64
2022/01/02 01:37:50;;;;;;;12.63;4.63;;;;;;;;;;5036690;28;20593;-64
2022/01/02 01:40:19;;;;;;;6.70;3.03;;;;;;;;;;5054427;28;20289;-65
2022/01/02 01:42:57;;;;;;;6.37;2.80;;;;;;;;;;5037409;28;20280;-64
2022/01/02 01:45:29;;;;;;;15.50;4.33;;;;;;;;;;5037434;28;20200;-64
2022/01/02 01:48:04;;;;;;;40.27;11.27;;;;;;;;;;5037375;28;20253;-65
2022/01/02 01:50:42;;;;;;;22.57;8.00;;;;;;;;;;5037317;28;20608;-64
2022/01/02 01:53:17;;;;;;;6.77;3.33;;;;;;;;;;5037355;28;20283;-64
2022/01/02 01:55:44;;;;;;;10.90;3.13;;;;;;;;;;5036880;28;20220;-63
2022/01/02 01:58:12;;;;;;;40.87;12.40;;;;;;;;;;5020938;28;20290;-65
2022/01/02 02:00:42;;;;;;;44.73;11.37;;;;;;;;;;5036843;28;20227;-64
2022/01/02 02:03:24;;;;;;;220.90;52.47;;;;;;;;;;5036689;28;20683;-65
2022/01/02 02:05:52;;;;;;;241.13;56.23;;;;;;;;;;5036726;28;20246;-64
2022/01/02 02:08:25;;;;;;;470.43;105.83;;;;;;;;;;5054236;28;20614;-63
2022/01/02 02:10:56;;;;;;;251.07;57.00;;;;;;;;;;5036604;28;20591;-64
2022/01/02 02:13:24;;;;;;;62.70;16.33;;;;;;;;;;5020972;28;20200;-65
2022/01/02 02:15:56;;;;;;;106.30;24.20;;;;;;;;;;5036807;28;20200;-64
2022/01/02 02:18:23;;;;;;;56.20;13.93;;;;;;;;;;5036368;28;20664;-64
2022/01/02 02:20:51;;;;;;;127.27;29.90;;;;;;;;;;5036609;28;20236;-65
2022/01/02 02:23:25;;;;;;;76.87;19.70;;;;;;;;;;5032834;28;20286;-64
2022/01/02 02:25:52;;;;;;;120.03;27.23;;;;;;;;;;5032946;28;20224;-64
2022/01/02 02:28:25;;;;;;;101.23;24.30;;;;;;;;;;5032999;28;20684;-63
2022/01/02 02:30:55;;;;;;;94.90;20.40;;;;;;;;;;5033083;28;20192;-64
2022/01/02 02:33:24;;;;;;;104.57;25.10;;;;;;;;;;5033196;28;20268;-64
2022/01/02 02:35:51;;;;;;;50.90;14.03;;;;;;;;;;5033175;28;20213;-65
2022/01/02 02:38:19;;;;;;;8.47;4.03;;;;;;;;;;5034437;28;20216;-65
2022/01/02 02:40:52;;;;;;;12.17;4.63;;;;;;;;;;5033051;28;20228;-65
2022/01/02 02:43:28;;;;;;;26.97;8.17;;;;;;;;;;5032846;28;20266;-64
2022/01/02 02:51:30;;;;;;;43.00;11.40;;;;;;;;;;5033178;28;20557;-64
2022/01/02 02:53:58;;;;;;;107.83;26.07;;;;;;;;;;5033034;28;20201;-64
2022/01/02 02:56:29;;;;;;;25.33;8.20;;;;;;;;;;5032679;28;20216;-64
2022/01/02 02:58:57;;;;;;;238.10;58.17;;;;;;;;;;5034129;28;20197;-64
2022/01/02 03:01:28;;;;;;;236.27;59.23;;;;;;;;;;5032753;28;20236;-64
2022/01/02 03:03:58;;;;;;;337.67;76.70;;;;;;;;;;5032876;28;20300;-64
2022/01/02 03:06:25;;;;;;;343.83;84.27;;;;;;;;;;5034017;28;20208;-64
2022/01/02 03:08:53;;;;;;;339.87;82.20;;;;;;;;;;5034124;28;20212;-64
2022/01/02 03:11:23;;;;;;;256.33;63.07;;;;;;;;;;5032614;28;20216;-64
2022/01/02 03:13:54;;;;;;;243.27;62.50;;;;;;;;;;5033002;28;20201;-64
2022/01/02 03:16:22;;;;;;;192.13;53.33;;;;;;;;;;5032965;28;20213;-64
2022/01/02 03:18:50;;;;;;;299.93;79.90;;;;;;;;;;5032870;28;20212;-64
2022/01/02 03:21:17;;;;;;;280.20;72.00;;;;;;;;;;5032787;28;20236;-65
2022/01/02 03:23:44;;;;;;;72.70;22.60;;;;;;;;;;5032367;28;20240;-64
2022/01/02 03:26:12;;;;;;;83.80;23.60;;;;;;;;;;5032705;28;20296;-65
2022/01/02 03:28:40;;;;;;;73.83;33.93;;;;;;;;;;5032879;28;20208;-64
2022/01/02 03:31:07;;;;;;;160.60;105.53;;;;;;;;;;5032382;28;20211;-65
2022/01/02 03:33:35;;;;;;;291.83;105.23;;;;;;;;;;5033348;28;20256;-64
2022/01/02 03:36:04;;;;;;;206.37;64.90;;;;;;;;;;5031255;28;20664;-65
2022/01/02 03:38:37;;;;;;;134.00;38.80;;;;;;;;;;5031177;28;20223;-64
2022/01/02 03:41:04;;;;;;;80.73;23.17;;;;;;;;;;5031993;28;20738;-64
2022/01/02 03:43:32;;;;;;;140.20;40.60;;;;;;;;;;5033702;28;20219;-64
2022/01/02 03:46:02;;;;;;;221.70;71.30;;;;;;;;;;5032529;28;20217;-65
2022/01/02 03:48:32;;;;;;;180.00;58.53;;;;;;;;;;5032383;28;20201;-65
2022/01/02 03:51:05;;;;;;;234.27;67.67;;;;;;;;;;5032401;28;20200;-65
2022/01/02 03:53:33;;;;;;;221.10;59.60;;;;;;;;;;5033679;28;20213;-65
2022/01/02 03:56:00;;;;;;;237.87;66.47;;;;;;;;;;5032453;28;20300;-65
2022/01/02 03:58:30;;;;;;;179.53;50.13;;;;;;;;;;5032535;28;20205;-64
2022/01/02 04:00:57;;;;;;;160.43;48.27;;;;;;;;;;5033633;28;20244;-64
2022/01/02 04:03:25;;;;;;;236.70;68.83;;;;;;;;;;5033324;28;20212;-64
2022/01/02 04:05:53;;;;;;;187.33;55.53;;;;;;;;;;5034555;28;20208;-64
2022/01/02 04:08:20;;;;;;;169.23;50.53;;;;;;;;;;5030509;28;20612;-65
2022/01/02 04:10:49;;;;;;;146.87;49.23;;;;;;;;;;5027656;28;20213;-65
2022/01/02 04:13:18;;;;;;;162.73;48.77;;;;;;;;;;5029840;28;20213;-64
2022/01/02 04:15:45;;;;;;;138.97;40.53;;;;;;;;;;5029569;28;20216;-64
2022/01/02 04:18:12;;;;;;;135.77;38.77;;;;;;;;;;5031975;28;20209;-63
2022/01/02 04:20:40;;;;;;;149.50;44.43;;;;;;;;;;5028043;28;20245;-64
2022/01/02 04:23:07;;;;;;;158.70;45.40;;;;;;;;;;5037693;28;20282;-64
2022/01/02 04:25:34;;;;;;;110.37;34.43;;;;;;;;;;5034053;28;20238;-63
2022/01/02 04:28:02;;;;;;;183.00;58.97;;;;;;;;;;5029913;28;20224;-64
2022/01/02 04:30:29;;;;;;;51.77;17.77;;;;;;;;;;5049095;28;20588;-63
2022/01/02 04:32:56;;;;;;;56.57;22.17;;;;;;;;;;5034526;28;20586;-63
2022/01/02 04:35:24;;;;;;;136.10;40.37;;;;;;;;;;5033350;28;20208;-63
2022/01/02 04:37:52;;;;;;;85.47;25.13;;;;;;;;;;5030003;28;20240;-64
2022/01/02 04:40:19;;;;;;;38.37;13.30;;;;;;;;;;5048447;28;20239;-63
2022/01/02 04:42:47;;;;;;;37.53;13.77;;;;;;;;;;5033374;28;20599;-63
2022/01/02 04:45:15;;;;;;;24.00;9.60;;;;;;;;;;5032599;28;20247;-63
2022/01/02 04:47:42;;;;;;;32.40;11.30;;;;;;;;;;5056172;28;20216;-64
2022/01/02 04:50:09;;;;;;;50.53;15.03;;;;;;;;;;5038248;28;20216;-64
2022/01/02 04:52:37;;;;;;;62.93;21.90;;;;;;;;;;5038401;28;20246;-64
2022/01/02 04:55:04;;;;;;;107.17;30.47;;;;;;;;;;5038115;28;20568;-63
2022/01/02 04:57:32;;;;;;;46.07;15.23;;;;;;;;;;5056112;28;20220;-63
2022/01/02 05:00:00;;;;;;;41.27;12.93;;;;;;;;;;5037819;28;20208;-63
2022/01/02 05:02:28;;;;;;;88.83;25.80;;;;;;;;;;5038120;28;20218;-63
2022/01/02 05:04:56;;;;;;;55.37;16.20;;;;;;;;;;5038266;28;20215;-63
2022/01/02 05:07:23;;;;;;;38.30;12.17;;;;;;;;;;5056130;28;20219;-64
2022/01/02 05:09:51;;;;;;;27.90;9.90;;;;;;;;;;5055726;28;20262;-63
2022/01/02 05:12:19;;;;;;;1479.03;621.97;;;;;;;;;;5037601;28;20212;-63
2022/01/02 05:14:46;;;;;;;1999.90;914.07;;;;;;;;;;5037855;28;20201;-64
2022/01/02 05:17:13;;;;;;;1937.93;902.63;;;;;;;;;;5037598;28;20674;-65
2022/01/02 05:19:41;;;;;;;1481.30;792.63;;;;;;;;;;5037673;28;20254;-65
2022/01/02 05:22:10;;;;;;;879.77;592.30;;;;;;;;;;5037620;28;20587;-65
2022/01/02 05:24:37;;;;;;;606.73;383.23;;;;;;;;;;5054947;28;20318;-65
2022/01/02 05:27:05;;;;;;;321.43;112.43;;;;;;;;;;5037610;28;20208;-64
2022/01/02 05:29:32;;;;;;;150.90;58.60;;;;;;;;;;5055316;28;20211;-64
2022/01/02 05:31:59;;;;;;;48.63;23.37;;;;;;;;;;5037417;28;20748;-65
2022/01/02 05:34:27;;;;;;;52.17;18.47;;;;;;;;;;5055554;28;20219;-65
2022/01/02 05:36:54;;;;;;;99.73;36.90;;;;;;;;;;5037232;28;20207;-65
2022/01/02 05:39:22;;;;;;;45.80;15.70;;;;;;;;;;5037439;28;20607;-65
2022/01/02 05:41:51;;;;;;;64.60;18.23;;;;;;;;;;5037341;28;20240;-65
2022/01/02 05:44:22;;;;;;;53.03;15.73;;;;;;;;;;5037615;28;21118;-64
2022/01/02 05:46:49;;;;;;;55.00;14.27;;;;;;;;;;5037343;28;20212;-64
2022/01/02 05:49:17;;;;;;;49.90;15.30;;;;;;;;;;5037329;28;20212;-64
2022/01/02 05:51:44;;;;;;;72.63;21.13;;;;;;;;;;5037263;28;20208;-65
2022/01/02 05:54:11;;;;;;;96.10;24.77;;;;;;;;;;5037209;28;20205;-65
2022/01/02 05:56:39;;;;;;;210.20;47.27;;;;;;;;;;5036764;28;20218;-64
2022/01/02 05:59:07;;;;;;;26.47;13.13;;;;;;;;;;5036815;28;20208;-65
2022/01/02 06:01:35;;;;;;;56.20;17.07;;;;;;;;;;5036732;28;20243;-64
2022/01/02 06:04:03;;;;;;;40.97;10.43;;;;;;;;;;5037083;28;20231;-64
2022/01/02 06:06:30;;;;;;;34.90;10.67;;;;;;;;;;5054292;28;20215;-65
2022/01/02 06:08:58;;;;;;;26.27;8.63;;;;;;;;;;5036521;28;20291;-64
2022/01/02 06:11:26;;;;;;;29.80;10.20;;;;;;;;;;5054008;28;20212;-64
2022/01/02 06:13:53;;;;;;;22.77;8.73;;;;;;;;;;5054270;28;20208;-64
2022/01/02 06:16:23;;;;;;;19.87;7.37;;;;;;;;;;5036516;28;20279;-64
2022/01/02 06:18:52;;;;;;;151.47;54.70;;;;;;;;;;5054082;28;20265;-65
2022/01/02 06:21:19;;;;;;;29.90;12.47;;;;;;;;;;5036040;28;20271;-65
2022/01/02 06:23:47;;;;;;;42.03;11.23;;;;;;;;;;5035256;28;20239;-64
2022/01/02 06:26:14;;;;;;;36.77;11.47;;;;;;;;;;5036206;28;20212;-64
2022/01/02 06:28:42;;;;;;;35.07;9.83;;;;;;;;;;5036173;28;20319;-64
2022/01/02 06:31:11;;;;;;;28.03;8.53;;;;;;;;;;5035943;28;20619;-64
2022/01/02 06:33:39;;;;;;;33.30;9.50;;;;;;;;;;5036195;28;20207;-64
2022/01/02 06:36:07;;;;;;;51.23;12.63;;;;;;;;;;5036087;28;20266;-65
2022/01/02 06:38:35;;;;;;;76.33;16.67;;;;;;;;;;5035967;28;20262;-65
2022/01/02 06:41:03;;;;;;;49.93;29.30;;;;;;;;;;5035855;28;20240;-65
2022/01/02 06:43:32;;;;;;;74.57;17.97;;;;;;;;;;5036256;28;20216;-65
2022/01/02 06:46:00;;;;;;;50.37;14.50;;;;;;;;;;5035628;28;20248;-65
2022/01/02 06:48:28;;;;;;;31.90;10.17;;;;;;;;;;5035844;28;20329;-66
2022/01/02 06:50:56;;;;;;;84.50;21.23;;;;;;;;;;5035584;28;20612;-65
2022/01/02 06:53:25;;;;;;;56.93;14.30;;;;;;;;;;5035865;28;20299;-65
2022/01/02 06:55:53;;;;;;;47.57;11.83;;;;;;;;;;5036038;28;20204;-64
2022/01/02 06:58:21;;;;;;;54.30;23.23;;;;;;;;;;5035866;28;20261;-65
2022/01/02 07:00:48;;;;;;;39.33;22.57;;;;;;;;;;5035614;28;20236;-65
2022/01/02 07:03:16;;;;;;;67.37;24.70;;;;;;;;;;5035450;28;20230;-66
2022/01/02 07:05:44;;;;;;;34.20;10.90;;;;;;;;;;5035911;28;20204;-65
2022/01/02 07:08:12;;;;;;;23.77;8.30;;;;;;;;;;5035493;28;20223;-65
2022/01/02 07:10:40;;;;;;;12.87;5.30;;;;;;;;;;5035681;28;20599;-64
2022/01/02 07:13:07;;;;;;;29.93;9.63;;;;;;;;;;5053788;28;20208;-64
2022/01/02 07:15:34;;;;;;;13.07;5.40;;;;;;;;;;5053676;28;20257;-64
2022/01/02 07:18:02;;;;;;;54.50;20.57;;;;;;;;;;5050883;28;20670;-64
2022/01/02 07:20:29;;;;;;;86.83;23.67;;;;;;;;;;5051945;28;20216;-64
2022/01/02 07:22:56;;;;;;;55.80;18.90;;;;;;;;;;5045976;28;20322;-63
2022/01/02 07:25:24;;;;;;;30.77;9.43;;;;;;;;;;5045122;28;20266;-64
2022/01/02 07:27:51;;;;;;;47.83;14.60;;;;;;;;;;5048478;28;20223;-65
2022/01/02 07:30:18;;;;;;;52.70;16.37;;;;;;;;;;5039265;28;20646;-64
2022/01/02 07:32:46;;;;;;;25.60;9.17;;;;;;;;;;5046966;28;20331;-63
2022/01/02 07:35:14;;;;;;;62.90;15.90;;;;;;;;;;5049125;28;20240;-66
2022/01/02 07:37:42;;;;;;;84.33;17.10;;;;;;;;;;5052423;28;20315;-66
2022/01/02 07:40:10;;;;;;;97.97;22.50;;;;;;;;;;5050016;28;20270;-67
2022/01/02 07:42:37;;;;;;;108.00;54.10;;;;;;;;;;5048535;28;20760;-63
2022/01/02 07:45:12;;;;;;;71.37;21.40;;;;;;;;;;5033164;28;20291;-67
2022/01/02 07:47:40;;;;;;;54.67;18.63;;;;;;;;;;5049709;28;20278;-66
2022/01/02 07:50:08;;;;;;;56.00;18.63;;;;;;;;;;5052196;28;20239;-65
2022/01/02 07:52:35;;;;;;;105.27;25.53;;;;;;;;;;5049461;28;20325;-66
2022/01/02 07:55:03;;;;;;;209.13;42.77;;;;;;;;;;5045428;28;20248;-64
2022/01/02 07:57:31;;;;;;;153.37;32.93;;;;;;;;;;5044932;28;20757;-63
2022/01/02 07:59:58;;;;;;;87.23;20.23;;;;;;;;;;5053616;28;20573;-65
2022/01/02 08:02:38;;;;;;;50.67;39.77;;;;;;;;;;5056460;28;20318;-66
2022/01/02 08:05:10;;;;;;;46.87;20.87;;;;;;;;;;5056204;28;20305;-65
2022/01/02 08:07:39;;;;;;;43.83;15.07;;;;;;;;;;5054480;28;20307;-64
2022/01/02 08:10:07;;;;;;;42.90;16.20;;;;;;;;;;5056099;28;20627;-64
2022/01/02 08:12:34;;;;;;;18.67;8.73;;;;;;;;;;5037626;28;20236;-65
2022/01/02 08:15:02;;;;;;;127.30;51.77;;;;;;;;;;5018320;28;20236;-65
2022/01/02 08:17:30;;;;;;;60.93;21.13;;;;;;;;;;5035700;28;20242;-67
2022/01/02 08:19:57;;;;;;;35.90;14.90;;;;;;;;;;5036141;28;20316;-66
2022/01/02 08:22:24;;;;;;;94.20;32.50;;;;;;;;;;5034661;28;20252;-66
2022/01/02 08:24:51;;;;;;;106.53;54.33;;;;;;;;;;5035961;28;20310;-66
2022/01/02 08:27:19;;;;;;;124.70;38.60;;;;;;;;;;5035651;28;20239;-66
2022/01/02 08:29:46;;;;;;;117.10;36.27;;;;;;;;;;5040643;28;20314;-66
2022/01/02 08:32:13;;;;;;;54.90;21.73;;;;;;;;;;5054831;28;20290;-63
2022/01/02 08:34:41;;;;;;;83.13;28.87;;;;;;;;;;5055864;28;20236;-65
2022/01/02 08:37:08;;;;;;;45.63;18.83;;;;;;;;;;5037074;28;20718;-67
2022/01/02 08:39:36;;;;;;;64.73;37.17;;;;;;;;;;5055637;28;20236;-67
2022/01/02 08:42:04;;;;;;;183.43;124.13;;;;;;;;;;5051930;28;20244;-68
2022/01/02 08:44:32;;;;;;;280.87;112.20;;;;;;;;;;5050120;28;20236;-66
2022/01/02 08:46:59;;;;;;;102.77;34.60;;;;;;;;;;5026125;28;20245;-67
2022/01/02 08:49:27;;;;;;;48.17;19.80;;;;;;;;;;5045558;28;20776;-66
2022/01/02 08:51:55;;;;;;;54.97;21.90;;;;;;;;;;5019509;28;20237;-67
2022/01/02 08:54:22;;;;;;;37.43;15.70;;;;;;;;;;5018054;28;20232;-65
2022/01/02 08:56:50;;;;;;;54.80;22.90;;;;;;;;;;5017589;28;20255;-66
2022/01/02 08:59:18;;;;;;;82.03;30.50;;;;;;;;;;5034688;28;20286;-64
2022/01/02 09:01:45;;;;;;;40.57;26.20;;;;;;;;;;5033911;28;20302;-64
2022/01/02 09:04:13;;;;;;;80.73;25.43;;;;;;;;;;5045463;28;20238;-64
2022/01/02 09:06:40;;;;;;;41.20;18.20;;;;;;;;;;5053868;28;20220;-65
2022/01/02 09:09:08;;;;;;;45.80;19.93;;;;;;;;;;5051659;28;20224;-64
2022/01/02 09:11:35;;;;;;;27.33;12.57;;;;;;;;;;5036720;28;20271;-64
2022/01/02 09:14:03;;;;;;;29.10;12.57;;;;;;;;;;5042332;28;20232;-64
2022/01/02 09:16:31;;;;;;;26.63;12.83;;;;;;;;;;5054298;28;20243;-65
2022/01/02 09:18:58;;;;;;;21.73;10.03;;;;;;;;;;5019945;28;20235;-66
2022/01/02 09:21:25;;;;;;;58.63;18.17;;;;;;;;;;5053525;28;20243;-65
2022/01/02 09:23:53;;;;;;;55.97;23.40;;;;;;;;;;5048222;28;20583;-65
2022/01/02 09:26:20;;;;;;;51.20;17.93;;;;;;;;;;5034700;28;20314;-65
2022/01/02 09:28:47;;;;;;;27.17;12.47;;;;;;;;;;5052847;28;20235;-65
2022/01/02 09:31:14;;;;;;;29.60;11.83;;;;;;;;;;5047878;28;20295;-65
2022/01/02 09:33:42;;;;;;;22.43;10.90;;;;;;;;;;5044632;28;20235;-65
2022/01/02 09:36:09;;;;;;;27.03;12.60;;;;;;;;;;5043970;28;20242;-65
2022/01/02 09:38:36;;;;;;;91.90;26.33;;;;;;;;;;5052489;28;20319;-65
2022/01/02 09:41:05;;;;;;;70.07;40.97;;;;;;;;;;5053446;28;20235;-66
2022/01/02 09:43:32;;;;;;;41.37;21.77;;;;;;;;;;5035921;28;20227;-65
2022/01/02 09:45:59;;;;;;;42.23;17.07;;;;;;;;;;5050493;28;20801;-63
2022/01/02 09:48:27;;;;;;;29.63;14.33;;;;;;;;;;5051003;28;20236;-65
2022/01/02 09:50:54;;;;;;;24.83;12.90;;;;;;;;;;5049920;28;20263;-66
2022/01/02 09:53:22;;;;;;;22.07;11.93;;;;;;;;;;5046662;28;20240;-66
2022/01/02 09:55:55;;;;;;;21.43;12.70;;;;;;;;;;5031722;28;20232;-64
2022/01/02 09:58:22;;;;;;;21.87;11.87;;;;;;;;;;5028729;28;20243;-65
2022/01/02 10:00:49;;;;;;;26.30;13.53;;;;;;;;;;5049658;28;20311;-66
2022/01/02 10:03:18;;;;;;;107.20;42.97;;;;;;;;;;5049660;28;20235;-65
2022/01/02 10:05:56;;;;;;;24.47;14.30;;;;;;;;;;5049147;28;20232;-65
2022/01/02 10:08:31;;;;;;;51.10;18.80;;;;;;;;;;5048226;28;20235;-68
2022/01/02 10:11:01;;;;;;;43.00;17.13;;;;;;;;;;5020038;28;20319;-68
2022/01/02 10:13:42;;;;;;;40.40;17.03;;;;;;;;;;5034876;28;20228;-65
2022/01/02 10:16:34;;;;;;;55.07;20.40;;;;;;;;;;5035973;28;20646;-67
2022/01/02 10:19:17;;;;;;;30.17;14.13;;;;;;;;;;5053991;28;20622;-68
2022/01/02 10:22:10;;;;;;;36.23;15.10;;;;;;;;;;5052385;28;20244;-64
2022/01/02 10:24:42;;;;;;;42.90;16.20;;;;;;;;;;5053352;28;20653;-63
2022/01/02 10:27:21;;;;;;;22.77;15.77;;;;;;;;;;5053390;28;20235;-63
2022/01/02 10:29:54;;;;;;;53.80;20.23;;;;;;;;;;5052907;28;20730;-63
2022/01/02 10:32:39;;;;;;;28.57;13.57;;;;;;;;;;5053129;28;20262;-64
2022/01/02 10:35:18;;;;;;;26.10;12.47;;;;;;;;;;5035225;28;20227;-63
2022/01/02 10:37:55;;;;;;;33.30;15.37;;;;;;;;;;5053736;28;20203;-63
2022/01/02 10:40:28;;;;;;;31.80;14.93;;;;;;;;;;5054119;28;20207;-63
2022/01/02 10:42:57;;;;;;;28.57;14.50;;;;;;;;;;5053885;28;20227;-63
2022/01/02 10:45:43;;;;;;;27.10;14.10;;;;;;;;;;5053855;28;20218;-63
2022/01/02 10:48:12;;;;;;;187.80;56.47;;;;;;;;;;5053620;28;20201;-64
2022/01/02 10:50:58;;;;;;;41.27;18.30;;;;;;;;;;5053853;28;20219;-64
2022/01/02 10:53:26;;;;;;;41.57;17.63;;;;;;;;;;5054069;28;20250;-64
2022/01/02 10:55:53;;;;;;;33.77;15.23;;;;;;;;;;5053546;28;20216;-64
2022/01/02 10:58:20;;;;;;;30.87;15.20;;;;;;;;;;5053668;28;20211;-64
2022/01/02 11:00:48;;;;;;;30.27;14.67;;;;;;;;;;5053655;28;20570;-63
2022/01/02 11:03:16;;;;;;;35.33;15.03;;;;;;;;;;5053628;28;20240;-63
2022/01/02 11:05:45;;;;;;;57.87;20.20;;;;;;;;;;5053877;28;20204;-64
2022/01/02 11:08:13;;;;;;;66.37;20.40;;;;;;;;;;5053814;28;20212;-64
2022/01/02 11:10:41;;;;;;;36.70;17.77;;;;;;;;;;5056432;28;20208;-64
2022/01/02 11:13:08;;;;;;;43.63;18.83;;;;;;;;;;5040341;28;20216;-63
2022/01/02 11:15:35;;;;;;;34.93;16.70;;;;;;;;;;5057673;28;20268;-63
2022/01/02 11:18:03;;;;;;;41.10;17.67;;;;;;;;;;5057686;28;20211;-64
2022/01/02 11:20:33;;;;;;;29.97;14.83;;;;;;;;;;5056969;28;20216;-63
2022/01/02 11:23:20;;;;;;;51.93;20.63;;;;;;;;;;5057238;28;20239;-64
2022/01/02 11:25:57;;;;;;;47.97;19.20;;;;;;;;;;5040971;28;20220;-63
2022/01/02 11:28:40;;;;;;;41.60;22.10;;;;;;;;;;5057380;28;20205;-63
2022/01/02 11:31:28;;;;;;;43.10;20.67;;;;;;;;;;5040671;28;20197;-64
2022/01/02 11:33:55;;;;;;;34.63;16.60;;;;;;;;;;5057457;28;20227;-63
2022/01/02 11:36:30;;;;;;;27.10;15.57;;;;;;;;;;5039946;28;20254;-63
2022/01/02 11:39:05;;;;;;;35.23;17.07;;;;;;;;;;5057077;28;20199;-63
2022/01/02 11:41:34;;;;;;;35.93;17.77;;;;;;;;;;5057062;28;20651;-63
2022/01/02 11:44:04;;;;;;;32.07;16.57;;;;;;;;;;5057016;28;20239;-63
2022/01/02 11:46:58;;;;;;;37.13;19.33;;;;;;;;;;5057043;28;20244;-63
2022/01/02 11:49:48;;;;;;;42.10;19.23;;;;;;;;;;5056179;28;20574;-63
2022/01/02 11:52:22;;;;;;;44.37;20.73;;;;;;;;;;5057080;28;20200;-64
2022/01/02 11:54:52;;;;;;;56.20;23.00;;;;;;;;;;5056944;28;20191;-63
2022/01/02 11:57:23;;;;;;;46.33;20.17;;;;;;;;;;5056822;28;20219;-63
2022/01/02 11:59:50;;;;;;;43.73;20.70;;;;;;;;;;5056843;28;20196;-62
2022/01/02 12:02:24;;;;;;;43.33;19.53;;;;;;;;;;5056485;28;20738;-62
2022/01/02 12:07:35;;;;;;;44.67;18.80;;;;;;;;;;5057181;28;20200;-63
2022/01/02 12:10:16;;;;;;;63.90;24.17;;;;;;;;;;5056511;28;20204;-63
2022/01/02 12:12:58;;;;;;;42.23;21.83;;;;;;;;;;5056432;28;20203;-62
2022/01/02 12:15:31;;;;;;;49.10;22.80;;;;;;;;;;5056854;28;20204;-63
2022/01/02 12:18:09;;;;;;;38.80;19.47;;;;;;;;;;5056490;28;20193;-62
2022/01/02 12:20:53;;;;;;;43.70;21.73;;;;;;;;;;5055629;28;20562;-63
2022/01/02 12:23:36;;;;;;;36.83;19.23;;;;;;;;;;5055805;28;20733;-62
2022/01/02 12:26:12;;;;;;;45.13;21.40;;;;;;;;;;5056431;28;20291;-62
2022/01/02 12:28:48;;;;;;;48.70;23.17;;;;;;;;;;5056092;28;20241;-63
2022/01/02 12:31:17;;;;;;;63.23;25.60;;;;;;;;;;5056146;28;20204;-62
2022/01/02 12:33:45;;;;;;;39.20;20.97;;;;;;;;;;5056236;28;20208;-62
2022/01/02 12:36:19;;;;;;;53.70;22.47;;;;;;;;;;5056049;28;20200;-63
2022/01/02 12:38:59;;;;;;;55.83;24.50;;;;;;;;;;5056283;28;20200;-63
2022/01/02 12:41:31;;;;;;;49.00;23.43;;;;;;;;;;5056257;28;20196;-62
2022/01/02 12:44:02;;;;;;;54.00;23.53;;;;;;;;;;5056186;28;20300;-62
2022/01/02 12:46:42;;;;;;;45.47;22.10;;;;;;;;;;5038202;28;20615;-62
2022/01/02 12:49:22;;;;;;;60.80;25.60;;;;;;;;;;5055966;28;20204;-62
2022/01/02 12:51:50;;;;;;;80.27;30.00;;;;;;;;;;5055695;28;20302;-63
2022/01/02 12:54:21;;;;;;;237.93;91.77;;;;;;;;;;5055926;28;20215;-62
2022/01/02 12:56:51;;;;;;;68.10;29.60;;;;;;;;;;5055894;28;20204;-62
2022/01/02 12:59:24;;;;;;;66.43;29.00;;;;;;;;;;5055716;28;20216;-63
2022/01/02 13:02:06;;;;;;;68.10;30.37;;;;;;;;;;5055821;28;20260;-63
2022/01/02 13:04:36;;;;;;;74.70;31.50;;;;;;;;;;5055467;28;20655;-62
2022/01/02 13:07:12;;;;;;;65.57;29.47;;;;;;;;;;5055613;28;20218;-63
2022/01/02 13:09:45;;;;;;;61.53;27.77;;;;;;;;;;5055600;28;20200;-63
2022/01/02 13:12:16;;;;;;;57.47;26.90;;;;;;;;;;5055671;28;20197;-62
2022/01/02 13:14:49;;;;;;;69.47;29.73;;;;;;;;;;5055656;28;20198;-63
2022/01/02 13:17:29;;;;;;;60.90;29.43;;;;;;;;;;5055544;28;20196;-62
2022/01/02 13:20:08;;;;;;;89.70;36.57;;;;;;;;;;5055443;28;20204;-62
2022/01/02 13:22:41;;;;;;;71.43;31.20;;;;;;;;;;5055145;28;20220;-62
2022/01/02 13:25:32;;;;;;;67.37;31.90;;;;;;;;;;5055201;28;20207;-62
2022/01/02 13:28:05;;;;;;;80.53;34.67;;;;;;;;;;5055416;28;20201;-62
2022/01/02 13:30:38;;;;;;;74.75;34.63;;;;;;;;;;5055389;28;20203;-62
2022/01/02 13:33:15;;;;;;;75.87;34.13;;;;;;;;;;5054683;28;20231;-63
2022/01/02 13:35:42;;;;;;;79.07;35.10;;;;;;;;;;5037084;28;20204;-62
2022/01/02 13:38:11;;;;;;;84.37;44.30;;;;;;;;;;5054809;28;20270;-62
2022/01/02 13:40:39;;;;;;;92.93;38.83;;;;;;;;;;5054730;28;20734;-63
2022/01/02 13:43:13;;;;;;;79.90;34.47;;;;;;;;;;5054657;28;20698;-63
2022/01/02 13:45:46;;;;;;;82.50;36.90;;;;;;;;;;5054943;28;20199;-62
2022/01/02 13:48:15;;;;;;;79.53;34.97;;;;;;;;;;5054884;28;20284;-62
2022/01/02 13:50:43;;;;;;;79.87;34.40;;;;;;;;;;5054787;28;20287;-62
2022/01/02 13:53:22;;;;;;;79.07;34.07;;;;;;;;;;5054761;28;20208;-62
2022/01/02 13:55:53;;;;;;;93.67;37.23;;;;;;;;;;5054795;28;20206;-62
2022/01/02 13:58:23;;;;;;;113.90;43.17;;;;;;;;;;5054697;28;20200;-62
2022/01/02 14:00:54;;;;;;;86.20;36.53;;;;;;;;;;5054389;28;20208;-62
2022/01/02 14:03:37;;;;;;;84.90;34.80;;;;;;;;;;5054297;28;20289;-63
2022/01/02 14:06:08;;;;;;;80.93;34.90;;;;;;;;;;5054579;28;20200;-62
2022/01/02 14:08:44;;;;;;;81.20;33.30;;;;;;;;;;5054638;28;20203;-62
2022/01/02 14:11:19;;;;;;;83.13;34.80;;;;;;;;;;5054462;28;20200;-62
2022/01/02 14:13:51;;;;;;;97.43;36.30;;;;;;;;;;5054477;28;20199;-62
2022/01/02 14:16:32;;;;;;;82.30;35.23;;;;;;;;;;5054420;28;20227;-63
2022/01/02 14:19:00;;;;;;;70.68;34.60;;;;;;;;;;5054077;28;20200;-62
2022/01/02 14:21:28;;;;;;;81.33;35.27;;;;;;;;;;5054212;28;20212;-62
2022/01/02 14:23:55;;;;;;;93.63;38.80;;;;;;;;;;5053401;28;20647;-62
2022/01/02 14:26:23;;;;;;;75.17;33.37;;;;;;;;;;5053331;28;20211;-62
2022/01/02 14:28:55;;;;;;;68.97;32.10;;;;;;;;;;5054012;28;20215;-62
2022/01/02 14:31:22;;;;;;;70.47;33.13;;;;;;;;;;5053852;28;20220;-62
2022/01/02 14:33:51;;;;;;;66.97;30.20;;;;;;;;;;5054110;28;20569;-63
2022/01/02 14:36:18;;;;;;;72.88;32.13;;;;;;;;;;5053946;28;20216;-63
2022/01/02 14:38:48;;;;;;;62.83;31.60;;;;;;;;;;5053900;28;20211;-63
2022/01/02 14:41:17;;;;;;;60.67;31.13;;;;;;;;;;5054187;28;20203;-62
2022/01/02 14:43:50;;;;;;;82.07;35.43;;;;;;;;;;5053499;28;20246;-63